sensor_id;sensor_type;location;lat;lon;timestamp;P1;durP1;ratioP1;P2;durP2;ratioP2
4726;SDS011;2377;51.734;8.950;2023-02-01T00:00:32;25.63;;;5.50;;
4726;SDS011;2377;51.734;8.950;2023-02-01T00:03:01;23.30;;;6.17;;
4726;SDS011;2377;51.734;8.950;2023-02-01T00:05:30;31.00;;;6.30;;
4726;SDS011;2377;51.734;8.950;2023-02-01T00:07:57;25.50;;;5.70;;
4726;SDS011;2377;51.734;8.950;2023-02-01T00:10:24;19.60;;;5.40;;
4726;SDS011;2377;51.734;8.950;2023-02-01T00:12:51;28.57;;;6.10;;
4726;SDS011;2377;51.734;8.950;2023-02-01T00:15:19;28.63;;;6.37;;
4726;SDS011;2377;51.734;8.950;2023-02-01T00:17:48;23.73;;;6.40;;
4726;SDS011;2377;51.734;8.950;2023-02-01T00:20:20;18.67;;;5.70;;
4726;SDS011;2377;51.734;8.950;2023-02-01T00:22:47;23.00;;;5.73;;
4726;SDS011;2377;51.734;8.950;2023-02-01T00:25:14;30.90;;;6.80;;
4726;SDS011;2377;51.734;8.950;2023-02-01T00:27:42;28.53;;;6.27;;
4726;SDS011;2377;51.734;8.950;2023-02-01T00:30:09;20.90;;;6.00;;
4726;SDS011;2377;51.734;8.950;2023-02-01T00:32:37;20.63;;;5.67;;
4726;SDS011;2377;51.734;8.950;2023-02-01T00:35:05;28.03;;;6.80;;
4726;SDS011;2377;51.734;8.950;2023-02-01T00:37:35;22.93;;;6.80;;
4726;SDS011;2377;51.734;8.950;2023-02-01T00:40:02;24.33;;;6.93;;
4726;SDS011;2377;51.734;8.950;2023-02-01T00:42:30;24.37;;;7.40;;
4726;SDS011;2377;51.734;8.950;2023-02-01T00:44:57;25.77;;;7.60;;
4726;SDS011;2377;51.734;8.950;2023-02-01T00:47:24;25.87;;;6.10;;
4726;SDS011;2377;51.734;8.950;2023-02-01T00:49:51;32.33;;;6.73;;
4726;SDS011;2377;51.734;8.950;2023-02-01T00:52:19;22.90;;;6.37;;
4726;SDS011;2377;51.734;8.950;2023-02-01T00:54:47;20.00;;;6.23;;
4726;SDS011;2377;51.734;8.950;2023-02-01T00:57:14;17.47;;;6.47;;
4726;SDS011;2377;51.734;8.950;2023-02-01T00:59:41;27.87;;;5.70;;
4726;SDS011;2377;51.734;8.950;2023-02-01T01:02:08;19.60;;;5.77;;
4726;SDS011;2377;51.734;8.950;2023-02-01T01:04:35;30.40;;;7.70;;
4726;SDS011;2377;51.734;8.950;2023-02-01T01:07:02;29.87;;;6.63;;
4726;SDS011;2377;51.734;8.950;2023-02-01T01:09:29;28.77;;;7.00;;
4726;SDS011;2377;51.734;8.950;2023-02-01T01:11:58;27.00;;;7.77;;
4726;SDS011;2377;51.734;8.950;2023-02-01T01:14:27;26.27;;;6.97;;
4726;SDS011;2377;51.734;8.950;2023-02-01T01:16:54;26.10;;;6.83;;
4726;SDS011;2377;51.734;8.950;2023-02-01T01:19:21;24.83;;;6.47;;
4726;SDS011;2377;51.734;8.950;2023-02-01T01:21:49;20.47;;;6.07;;
4726;SDS011;2377;51.734;8.950;2023-02-01T01:24:16;28.03;;;6.60;;
4726;SDS011;2377;51.734;8.950;2023-02-01T01:26:43;32.20;;;7.60;;
4726;SDS011;2377;51.734;8.950;2023-02-01T01:29:11;27.67;;;6.40;;
4726;SDS011;2377;51.734;8.950;2023-02-01T01:31:38;23.97;;;7.30;;
4726;SDS011;2377;51.734;8.950;2023-02-01T01:34:05;20.53;;;6.90;;
4726;SDS011;2377;51.734;8.950;2023-02-01T01:36:32;31.73;;;7.17;;
4726;SDS011;2377;51.734;8.950;2023-02-01T01:39:00;26.03;;;8.10;;
4726;SDS011;2377;51.734;8.950;2023-02-01T01:41:28;30.57;;;7.40;;
4726;SDS011;2377;51.734;8.950;2023-02-01T01:44:00;30.60;;;7.83;;
4726;SDS011;2377;51.734;8.950;2023-02-01T01:46:32;37.97;;;8.10;;
4726;SDS011;2377;51.734;8.950;2023-02-01T01:49:04;31.07;;;9.63;;
4726;SDS011;2377;51.734;8.950;2023-02-01T01:51:37;31.60;;;8.20;;
4726;SDS011;2377;51.734;8.950;2023-02-01T01:54:11;31.83;;;8.83;;
4726;SDS011;2377;51.734;8.950;2023-02-01T01:56:45;31.87;;;10.60;;
4726;SDS011;2377;51.734;8.950;2023-02-01T01:59:17;34.90;;;11.57;;
4726;SDS011;2377;51.734;8.950;2023-02-01T02:01:47;34.93;;;11.40;;
4726;SDS011;2377;51.734;8.950;2023-02-01T02:04:14;34.27;;;10.93;;
4726;SDS011;2377;51.734;8.950;2023-02-01T02:06:43;37.43;;;10.77;;
4726;SDS011;2377;51.734;8.950;2023-02-01T02:09:20;39.73;;;12.50;;
4726;SDS011;2377;51.734;8.950;2023-02-01T02:11:48;34.57;;;12.60;;
4726;SDS011;2377;51.734;8.950;2023-02-01T02:14:15;31.27;;;11.10;;
4726;SDS011;2377;51.734;8.950;2023-02-01T02:16:54;36.37;;;12.30;;
4726;SDS011;2377;51.734;8.950;2023-02-01T02:20:03;35.70;;;10.83;;
4726;SDS011;2377;51.734;8.950;2023-02-01T02:23:14;40.57;;;10.80;;
4726;SDS011;2377;51.734;8.950;2023-02-01T02:26:39;35.87;;;10.80;;
4726;SDS011;2377;51.734;8.950;2023-02-01T02:30:02;32.23;;;11.70;;
4726;SDS011;2377;51.734;8.950;2023-02-01T02:33:19;34.87;;;11.43;;
4726;SDS011;2377;51.734;8.950;2023-02-01T02:36:08;33.20;;;8.90;;
4726;SDS011;2377;51.734;8.950;2023-02-01T02:38:47;30.97;;;10.03;;
4726;SDS011;2377;51.734;8.950;2023-02-01T02:41:27;33.17;;;10.37;;
4726;SDS011;2377;51.734;8.950;2023-02-01T02:44:21;32.83;;;9.70;;
4726;SDS011;2377;51.734;8.950;2023-02-01T02:47:16;26.87;;;9.60;;
4726;SDS011;2377;51.734;8.950;2023-02-01T02:49:55;30.83;;;9.70;;
4726;SDS011;2377;51.734;8.950;2023-02-01T02:52:52;31.10;;;9.23;;
4726;SDS011;2377;51.734;8.950;2023-02-01T02:55:47;31.90;;;9.13;;
4726;SDS011;2377;51.734;8.950;2023-02-01T02:58:17;32.13;;;7.73;;
4726;SDS011;2377;51.734;8.950;2023-02-01T03:01:04;23.43;;;7.50;;
4726;SDS011;2377;51.734;8.950;2023-02-01T03:03:50;22.27;;;7.80;;
4726;SDS011;2377;51.734;8.950;2023-02-01T03:06:35;30.43;;;7.80;;
4726;SDS011;2377;51.734;8.950;2023-02-01T03:09:06;21.17;;;6.47;;
4726;SDS011;2377;51.734;8.950;2023-02-01T03:11:43;36.73;;;6.50;;
4726;SDS011;2377;51.734;8.950;2023-02-01T03:14:35;33.60;;;6.47;;
4726;SDS011;2377;51.734;8.950;2023-02-01T03:17:08;22.10;;;5.70;;
4726;SDS011;2377;51.734;8.950;2023-02-01T03:19:43;21.40;;;5.70;;
4726;SDS011;2377;51.734;8.950;2023-02-01T03:22:16;19.63;;;5.90;;
4726;SDS011;2377;51.734;8.950;2023-02-01T03:24:50;19.57;;;5.20;;
4726;SDS011;2377;51.734;8.950;2023-02-01T03:27:21;24.80;;;5.07;;
4726;SDS011;2377;51.734;8.950;2023-02-01T03:29:58;20.90;;;4.87;;
4726;SDS011;2377;51.734;8.950;2023-02-01T03:32:32;26.63;;;5.80;;
4726;SDS011;2377;51.734;8.950;2023-02-01T03:35:20;25.23;;;5.47;;
4726;SDS011;2377;51.734;8.950;2023-02-01T03:37:59;35.97;;;5.60;;
4726;SDS011;2377;51.734;8.950;2023-02-01T03:40:35;20.07;;;5.27;;
4726;SDS011;2377;51.734;8.950;2023-02-01T03:43:07;20.43;;;4.90;;
4726;SDS011;2377;51.734;8.950;2023-02-01T03:45:41;27.13;;;4.87;;
4726;SDS011;2377;51.734;8.950;2023-02-01T03:48:13;17.17;;;4.67;;
4726;SDS011;2377;51.734;8.950;2023-02-01T03:50:44;17.30;;;5.13;;
4726;SDS011;2377;51.734;8.950;2023-02-01T03:53:19;17.00;;;5.13;;
4726;SDS011;2377;51.734;8.950;2023-02-01T03:55:49;22.00;;;4.70;;
4726;SDS011;2377;51.734;8.950;2023-02-01T03:58:19;22.07;;;4.93;;
4726;SDS011;2377;51.734;8.950;2023-02-01T04:00:50;16.80;;;4.60;;
4726;SDS011;2377;51.734;8.950;2023-02-01T04:03:20;22.13;;;4.70;;
4726;SDS011;2377;51.734;8.950;2023-02-01T04:05:48;22.77;;;4.63;;
4726;SDS011;2377;51.734;8.950;2023-02-01T04:08:15;24.77;;;5.10;;
4726;SDS011;2377;51.734;8.950;2023-02-01T04:10:43;18.53;;;5.00;;
4726;SDS011;2377;51.734;8.950;2023-02-01T04:13:11;24.40;;;4.13;;
4726;SDS011;2377;51.734;8.950;2023-02-01T04:15:38;26.50;;;4.80;;
4726;SDS011;2377;51.734;8.950;2023-02-01T04:18:06;26.73;;;4.97;;
4726;SDS011;2377;51.734;8.950;2023-02-01T04:20:33;26.43;;;5.37;;
4726;SDS011;2377;51.734;8.950;2023-02-01T04:23:00;19.03;;;4.83;;
4726;SDS011;2377;51.734;8.950;2023-02-01T04:25:29;24.77;;;5.27;;
4726;SDS011;2377;51.734;8.950;2023-02-01T04:27:56;17.60;;;4.87;;
4726;SDS011;2377;51.734;8.950;2023-02-01T04:30:24;21.00;;;4.50;;
4726;SDS011;2377;51.734;8.950;2023-02-01T04:32:51;25.17;;;5.47;;
4726;SDS011;2377;51.734;8.950;2023-02-01T04:35:18;18.33;;;4.50;;
4726;SDS011;2377;51.734;8.950;2023-02-01T04:37:45;17.73;;;5.43;;
4726;SDS011;2377;51.734;8.950;2023-02-01T04:40:12;24.90;;;6.20;;
4726;SDS011;2377;51.734;8.950;2023-02-01T04:42:41;22.40;;;5.30;;
4726;SDS011;2377;51.734;8.950;2023-02-01T04:45:08;23.13;;;5.43;;
4726;SDS011;2377;51.734;8.950;2023-02-01T04:47:36;23.40;;;6.30;;
4726;SDS011;2377;51.734;8.950;2023-02-01T04:50:04;24.93;;;5.30;;
4726;SDS011;2377;51.734;8.950;2023-02-01T04:52:35;25.20;;;5.70;;
4726;SDS011;2377;51.734;8.950;2023-02-01T04:55:02;32.13;;;5.10;;
4726;SDS011;2377;51.734;8.950;2023-02-01T04:57:30;27.33;;;5.70;;
4726;SDS011;2377;51.734;8.950;2023-02-01T04:59:59;24.53;;;5.30;;
4726;SDS011;2377;51.734;8.950;2023-02-01T05:02:26;20.07;;;5.73;;
4726;SDS011;2377;51.734;8.950;2023-02-01T05:04:53;18.57;;;5.43;;
4726;SDS011;2377;51.734;8.950;2023-02-01T05:07:20;27.33;;;5.10;;
4726;SDS011;2377;51.734;8.950;2023-02-01T05:09:47;21.70;;;5.63;;
4726;SDS011;2377;51.734;8.950;2023-02-01T05:12:14;28.17;;;5.47;;
4726;SDS011;2377;51.734;8.950;2023-02-01T05:15:00;27.10;;;5.33;;
4726;SDS011;2377;51.734;8.950;2023-02-01T05:17:27;22.10;;;4.70;;
4726;SDS011;2377;51.734;8.950;2023-02-01T05:19:54;28.10;;;5.40;;
4726;SDS011;2377;51.734;8.950;2023-02-01T05:22:22;22.43;;;4.80;;
4726;SDS011;2377;51.734;8.950;2023-02-01T05:24:49;20.10;;;5.10;;
4726;SDS011;2377;51.734;8.950;2023-02-01T05:27:16;26.37;;;5.20;;
4726;SDS011;2377;51.734;8.950;2023-02-01T05:29:43;25.40;;;4.57;;
4726;SDS011;2377;51.734;8.950;2023-02-01T05:32:11;29.20;;;6.37;;
4726;SDS011;2377;51.734;8.950;2023-02-01T05:34:38;23.40;;;5.60;;
4726;SDS011;2377;51.734;8.950;2023-02-01T05:37:05;21.53;;;5.27;;
4726;SDS011;2377;51.734;8.950;2023-02-01T05:39:33;22.13;;;5.67;;
4726;SDS011;2377;51.734;8.950;2023-02-01T05:42:00;27.80;;;5.40;;
4726;SDS011;2377;51.734;8.950;2023-02-01T05:44:27;28.73;;;4.93;;
4726;SDS011;2377;51.734;8.950;2023-02-01T05:46:54;31.60;;;6.00;;
4726;SDS011;2377;51.734;8.950;2023-02-01T05:49:23;34.53;;;6.23;;
4726;SDS011;2377;51.734;8.950;2023-02-01T05:51:50;24.43;;;4.50;;
4726;SDS011;2377;51.734;8.950;2023-02-01T05:54:17;28.07;;;5.43;;
4726;SDS011;2377;51.734;8.950;2023-02-01T05:56:44;28.83;;;5.00;;
4726;SDS011;2377;51.734;8.950;2023-02-01T05:59:11;26.47;;;6.10;;
4726;SDS011;2377;51.734;8.950;2023-02-01T06:01:38;20.27;;;4.93;;
4726;SDS011;2377;51.734;8.950;2023-02-01T06:04:05;21.27;;;5.63;;
4726;SDS011;2377;51.734;8.950;2023-02-01T06:06:34;28.77;;;5.23;;
4726;SDS011;2377;51.734;8.950;2023-02-01T06:09:01;22.30;;;5.23;;
4726;SDS011;2377;51.734;8.950;2023-02-01T06:11:29;28.63;;;5.13;;
4726;SDS011;2377;51.734;8.950;2023-02-01T06:13:57;21.40;;;4.60;;
4726;SDS011;2377;51.734;8.950;2023-02-01T06:16:26;24.70;;;4.87;;
4726;SDS011;2377;51.734;8.950;2023-02-01T06:18:54;24.67;;;7.47;;
4726;SDS011;2377;51.734;8.950;2023-02-01T06:21:21;25.63;;;5.30;;
4726;SDS011;2377;51.734;8.950;2023-02-01T06:23:50;25.53;;;5.40;;
4726;SDS011;2377;51.734;8.950;2023-02-01T06:26:18;28.57;;;5.87;;
4726;SDS011;2377;51.734;8.950;2023-02-01T06:28:45;23.33;;;4.13;;
4726;SDS011;2377;51.734;8.950;2023-02-01T06:31:13;22.00;;;3.53;;
4726;SDS011;2377;51.734;8.950;2023-02-01T06:33:40;30.57;;;5.07;;
4726;SDS011;2377;51.734;8.950;2023-02-01T06:36:07;23.53;;;5.00;;
4726;SDS011;2377;51.734;8.950;2023-02-01T06:38:37;18.93;;;4.20;;
4726;SDS011;2377;51.734;8.950;2023-02-01T06:41:06;22.33;;;5.00;;
4726;SDS011;2377;51.734;8.950;2023-02-01T06:43:35;20.57;;;5.70;;
4726;SDS011;2377;51.734;8.950;2023-02-01T06:46:09;28.70;;;5.47;;
4726;SDS011;2377;51.734;8.950;2023-02-01T06:48:40;23.97;;;5.03;;
4726;SDS011;2377;51.734;8.950;2023-02-01T06:51:16;22.23;;;4.30;;
4726;SDS011;2377;51.734;8.950;2023-02-01T06:53:47;25.30;;;4.83;;
4726;SDS011;2377;51.734;8.950;2023-02-01T06:56:16;21.60;;;4.67;;
4726;SDS011;2377;51.734;8.950;2023-02-01T06:58:43;26.30;;;5.73;;
4726;SDS011;2377;51.734;8.950;2023-02-01T07:01:11;18.83;;;4.43;;
4726;SDS011;2377;51.734;8.950;2023-02-01T07:03:39;18.03;;;4.27;;
4726;SDS011;2377;51.734;8.950;2023-02-01T07:06:07;20.90;;;4.20;;
4726;SDS011;2377;51.734;8.950;2023-02-01T07:08:36;33.47;;;5.13;;
4726;SDS011;2377;51.734;8.950;2023-02-01T07:11:04;33.43;;;5.23;;
4726;SDS011;2377;51.734;8.950;2023-02-01T07:13:34;14.87;;;3.57;;
4726;SDS011;2377;51.734;8.950;2023-02-01T07:16:03;25.40;;;4.77;;
4726;SDS011;2377;51.734;8.950;2023-02-01T07:18:34;16.90;;;4.30;;
4726;SDS011;2377;51.734;8.950;2023-02-01T07:21:01;35.97;;;5.27;;
4726;SDS011;2377;51.734;8.950;2023-02-01T07:23:29;20.30;;;4.50;;
4726;SDS011;2377;51.734;8.950;2023-02-01T07:25:56;19.03;;;5.20;;
4726;SDS011;2377;51.734;8.950;2023-02-01T07:28:28;30.73;;;4.33;;
4726;SDS011;2377;51.734;8.950;2023-02-01T07:31:02;22.80;;;4.80;;
4726;SDS011;2377;51.734;8.950;2023-02-01T07:33:31;17.03;;;3.87;;
4726;SDS011;2377;51.734;8.950;2023-02-01T07:35:59;18.80;;;4.30;;
4726;SDS011;2377;51.734;8.950;2023-02-01T07:38:28;24.53;;;4.20;;
4726;SDS011;2377;51.734;8.950;2023-02-01T07:40:59;21.57;;;4.13;;
4726;SDS011;2377;51.734;8.950;2023-02-01T07:43:27;18.97;;;4.40;;
4726;SDS011;2377;51.734;8.950;2023-02-01T07:45:55;19.30;;;3.97;;
4726;SDS011;2377;51.734;8.950;2023-02-01T07:48:25;17.20;;;4.40;;
4726;SDS011;2377;51.734;8.950;2023-02-01T07:50:56;18.07;;;4.43;;
4726;SDS011;2377;51.734;8.950;2023-02-01T07:53:24;17.17;;;4.17;;
4726;SDS011;2377;51.734;8.950;2023-02-01T07:55:51;20.93;;;4.10;;
4726;SDS011;2377;51.734;8.950;2023-02-01T07:58:18;25.00;;;4.33;;
4726;SDS011;2377;51.734;8.950;2023-02-01T08:00:45;26.13;;;4.93;;
4726;SDS011;2377;51.734;8.950;2023-02-01T08:03:31;17.73;;;4.47;;
4726;SDS011;2377;51.734;8.950;2023-02-01T08:05:58;23.93;;;4.93;;
4726;SDS011;2377;51.734;8.950;2023-02-01T08:08:25;17.97;;;4.37;;
4726;SDS011;2377;51.734;8.950;2023-02-01T08:10:56;19.23;;;3.90;;
4726;SDS011;2377;51.734;8.950;2023-02-01T08:13:24;15.13;;;4.20;;
4726;SDS011;2377;51.734;8.950;2023-02-01T08:15:51;21.63;;;4.33;;
4726;SDS011;2377;51.734;8.950;2023-02-01T08:18:18;27.80;;;4.70;;
4726;SDS011;2377;51.734;8.950;2023-02-01T08:20:47;16.37;;;4.40;;
4726;SDS011;2377;51.734;8.950;2023-02-01T08:23:14;22.73;;;4.80;;
4726;SDS011;2377;51.734;8.950;2023-02-01T08:25:42;27.37;;;6.03;;
4726;SDS011;2377;51.734;8.950;2023-02-01T08:28:10;28.73;;;5.50;;
4726;SDS011;2377;51.734;8.950;2023-02-01T08:30:37;26.50;;;6.30;;
4726;SDS011;2377;51.734;8.950;2023-02-01T08:33:05;20.50;;;5.60;;
4726;SDS011;2377;51.734;8.950;2023-02-01T08:35:33;23.27;;;5.00;;
4726;SDS011;2377;51.734;8.950;2023-02-01T08:38:03;28.60;;;5.53;;
4726;SDS011;2377;51.734;8.950;2023-02-01T08:40:31;23.93;;;5.20;;
4726;SDS011;2377;51.734;8.950;2023-02-01T08:42:59;26.13;;;5.30;;
4726;SDS011;2377;51.734;8.950;2023-02-01T08:45:26;23.60;;;4.80;;
4726;SDS011;2377;51.734;8.950;2023-02-01T08:47:55;31.33;;;6.87;;
4726;SDS011;2377;51.734;8.950;2023-02-01T08:50:23;19.07;;;4.97;;
4726;SDS011;2377;51.734;8.950;2023-02-01T08:52:51;19.87;;;4.73;;
4726;SDS011;2377;51.734;8.950;2023-02-01T08:55:20;22.63;;;5.27;;
4726;SDS011;2377;51.734;8.950;2023-02-01T08:57:48;32.60;;;5.93;;
4726;SDS011;2377;51.734;8.950;2023-02-01T09:00:15;37.53;;;6.37;;
4726;SDS011;2377;51.734;8.950;2023-02-01T09:02:44;26.07;;;5.00;;
4726;SDS011;2377;51.734;8.950;2023-02-01T09:05:11;20.63;;;4.80;;
4726;SDS011;2377;51.734;8.950;2023-02-01T09:07:39;27.57;;;6.13;;
4726;SDS011;2377;51.734;8.950;2023-02-01T09:10:07;31.00;;;6.10;;
4726;SDS011;2377;51.734;8.950;2023-02-01T09:12:36;26.00;;;6.27;;
4726;SDS011;2377;51.734;8.950;2023-02-01T09:15:04;18.70;;;5.83;;
4726;SDS011;2377;51.734;8.950;2023-02-01T09:17:33;24.97;;;5.47;;
4726;SDS011;2377;51.734;8.950;2023-02-01T09:20:00;29.43;;;6.27;;
4726;SDS011;2377;51.734;8.950;2023-02-01T09:22:28;22.40;;;5.57;;
4726;SDS011;2377;51.734;8.950;2023-02-01T09:24:55;21.73;;;5.07;;
4726;SDS011;2377;51.734;8.950;2023-02-01T09:27:22;28.80;;;7.27;;
4726;SDS011;2377;51.734;8.950;2023-02-01T09:29:51;26.10;;;6.03;;
4726;SDS011;2377;51.734;8.950;2023-02-01T09:32:18;26.63;;;5.27;;
4726;SDS011;2377;51.734;8.950;2023-02-01T09:34:46;18.47;;;4.50;;
4726;SDS011;2377;51.734;8.950;2023-02-01T09:37:13;19.87;;;5.17;;
4726;SDS011;2377;51.734;8.950;2023-02-01T09:39:40;18.90;;;5.23;;
4726;SDS011;2377;51.734;8.950;2023-02-01T09:42:14;21.97;;;5.80;;
4726;SDS011;2377;51.734;8.950;2023-02-01T09:45:03;27.70;;;7.13;;
4726;SDS011;2377;51.734;8.950;2023-02-01T09:47:46;27.90;;;6.30;;
4726;SDS011;2377;51.734;8.950;2023-02-01T09:50:21;20.57;;;5.57;;
4726;SDS011;2377;51.734;8.950;2023-02-01T09:53:00;26.13;;;6.20;;
4726;SDS011;2377;51.734;8.950;2023-02-01T09:55:36;27.67;;;6.57;;
4726;SDS011;2377;51.734;8.950;2023-02-01T09:58:11;30.70;;;6.47;;
4726;SDS011;2377;51.734;8.950;2023-02-01T10:00:50;26.93;;;5.20;;
4726;SDS011;2377;51.734;8.950;2023-02-01T10:03:20;29.83;;;5.93;;
4726;SDS011;2377;51.734;8.950;2023-02-01T10:06:00;28.30;;;6.50;;
4726;SDS011;2377;51.734;8.950;2023-02-01T10:11:44;28.20;;;6.07;;
4726;SDS011;2377;51.734;8.950;2023-02-01T10:14:35;33.60;;;8.50;;
4726;SDS011;2377;51.734;8.950;2023-02-01T10:17:31;29.27;;;6.80;;
4726;SDS011;2377;51.734;8.950;2023-02-01T10:20:25;25.37;;;7.23;;
4726;SDS011;2377;51.734;8.950;2023-02-01T10:23:05;29.20;;;8.37;;
4726;SDS011;2377;51.734;8.950;2023-02-01T10:26:00;27.97;;;9.00;;
4726;SDS011;2377;51.734;8.950;2023-02-01T10:28:38;20.47;;;7.10;;
4726;SDS011;2377;51.734;8.950;2023-02-01T10:31:08;17.70;;;6.63;;
4726;SDS011;2377;51.734;8.950;2023-02-01T10:33:39;22.27;;;7.43;;
4726;SDS011;2377;51.734;8.950;2023-02-01T10:36:12;25.70;;;7.40;;
4726;SDS011;2377;51.734;8.950;2023-02-01T10:38:46;18.67;;;7.20;;
4726;SDS011;2377;51.734;8.950;2023-02-01T10:41:15;29.80;;;7.63;;
4726;SDS011;2377;51.734;8.950;2023-02-01T10:43:47;26.43;;;7.80;;
4726;SDS011;2377;51.734;8.950;2023-02-01T10:46:19;22.33;;;7.17;;
4726;SDS011;2377;51.734;8.950;2023-02-01T10:48:48;26.80;;;7.43;;
4726;SDS011;2377;51.734;8.950;2023-02-01T10:51:19;23.13;;;6.90;;
4726;SDS011;2377;51.734;8.950;2023-02-01T10:53:53;28.63;;;7.30;;
4726;SDS011;2377;51.734;8.950;2023-02-01T10:56:27;24.10;;;7.83;;
4726;SDS011;2377;51.734;8.950;2023-02-01T10:58:59;24.93;;;8.17;;
4726;SDS011;2377;51.734;8.950;2023-02-01T11:01:30;22.33;;;7.60;;
4726;SDS011;2377;51.734;8.950;2023-02-01T11:04:05;22.70;;;7.37;;
4726;SDS011;2377;51.734;8.950;2023-02-01T11:06:38;25.87;;;8.50;;
4726;SDS011;2377;51.734;8.950;2023-02-01T11:09:11;30.03;;;7.70;;
4726;SDS011;2377;51.734;8.950;2023-02-01T11:11:56;24.83;;;7.90;;
4726;SDS011;2377;51.734;8.950;2023-02-01T11:14:35;27.07;;;8.13;;
4726;SDS011;2377;51.734;8.950;2023-02-01T11:17:21;25.23;;;8.57;;
4726;SDS011;2377;51.734;8.950;2023-02-01T11:19:57;24.20;;;8.33;;
4726;SDS011;2377;51.734;8.950;2023-02-01T11:22:26;16.50;;;7.93;;
4726;SDS011;2377;51.734;8.950;2023-02-01T11:24:55;31.43;;;9.87;;
4726;SDS011;2377;51.734;8.950;2023-02-01T11:27:25;31.53;;;9.13;;
4726;SDS011;2377;51.734;8.950;2023-02-01T11:29:53;26.70;;;9.50;;
4726;SDS011;2377;51.734;8.950;2023-02-01T11:32:27;25.50;;;9.43;;
4726;SDS011;2377;51.734;8.950;2023-02-01T11:34:57;31.27;;;9.20;;
4726;SDS011;2377;51.734;8.950;2023-02-01T11:37:30;30.30;;;9.40;;
4726;SDS011;2377;51.734;8.950;2023-02-01T11:40:03;21.90;;;9.40;;
4726;SDS011;2377;51.734;8.950;2023-02-01T11:42:55;31.47;;;9.73;;
4726;SDS011;2377;51.734;8.950;2023-02-01T11:45:25;30.93;;;9.43;;
4726;SDS011;2377;51.734;8.950;2023-02-01T11:47:54;28.93;;;9.90;;
4726;SDS011;2377;51.734;8.950;2023-02-01T11:50:28;32.70;;;10.80;;
4726;SDS011;2377;51.734;8.950;2023-02-01T11:53:19;28.60;;;9.90;;
4726;SDS011;2377;51.734;8.950;2023-02-01T11:56:06;30.57;;;10.40;;
4726;SDS011;2377;51.734;8.950;2023-02-01T12:01:54;25.73;;;9.17;;
4726;SDS011;2377;51.734;8.950;2023-02-01T12:08:24;24.87;;;9.63;;
4726;SDS011;2377;51.734;8.950;2023-02-01T12:11:19;28.73;;;9.30;;
4726;SDS011;2377;51.734;8.950;2023-02-01T12:14:08;23.40;;;9.93;;
4726;SDS011;2377;51.734;8.950;2023-02-01T12:16:58;23.90;;;9.50;;
4726;SDS011;2377;51.734;8.950;2023-02-01T12:20:11;31.37;;;10.20;;
4726;SDS011;2377;51.734;8.950;2023-02-01T12:23:17;32.77;;;11.80;;
4726;SDS011;2377;51.734;8.950;2023-02-01T12:26:17;29.03;;;11.40;;
4726;SDS011;2377;51.734;8.950;2023-02-01T12:29:12;32.30;;;12.20;;
4726;SDS011;2377;51.734;8.950;2023-02-01T12:32:06;29.00;;;12.13;;
4726;SDS011;2377;51.734;8.950;2023-02-01T12:35:02;28.77;;;12.03;;
4726;SDS011;2377;51.734;8.950;2023-02-01T12:38:08;32.07;;;11.57;;
4726;SDS011;2377;51.734;8.950;2023-02-01T12:40:59;32.23;;;11.43;;
4726;SDS011;2377;51.734;8.950;2023-02-01T12:43:45;33.97;;;12.50;;
4726;SDS011;2377;51.734;8.950;2023-02-01T12:46:21;30.67;;;10.70;;
4726;SDS011;2377;51.734;8.950;2023-02-01T12:48:56;26.63;;;11.43;;
4726;SDS011;2377;51.734;8.950;2023-02-01T12:51:29;31.20;;;12.30;;
4726;SDS011;2377;51.734;8.950;2023-02-01T12:54:05;29.43;;;12.17;;
4726;SDS011;2377;51.734;8.950;2023-02-01T12:56:42;27.30;;;12.20;;
4726;SDS011;2377;51.734;8.950;2023-02-01T12:59:17;28.20;;;12.00;;
4726;SDS011;2377;51.734;8.950;2023-02-01T13:01:53;30.60;;;11.03;;
4726;SDS011;2377;51.734;8.950;2023-02-01T13:04:29;36.30;;;12.60;;
4726;SDS011;2377;51.734;8.950;2023-02-01T13:07:07;40.20;;;10.30;;
4726;SDS011;2377;51.734;8.950;2023-02-01T13:09:45;38.83;;;11.17;;
4726;SDS011;2377;51.734;8.950;2023-02-01T13:12:22;28.93;;;11.30;;
4726;SDS011;2377;51.734;8.950;2023-02-01T13:15:02;31.50;;;11.80;;
4726;SDS011;2377;51.734;8.950;2023-02-01T13:17:39;33.57;;;12.33;;
4726;SDS011;2377;51.734;8.950;2023-02-01T13:20:13;33.37;;;12.57;;
4726;SDS011;2377;51.734;8.950;2023-02-01T13:22:48;34.53;;;12.67;;
4726;SDS011;2377;51.734;8.950;2023-02-01T13:25:29;29.47;;;12.97;;
4726;SDS011;2377;51.734;8.950;2023-02-01T13:28:04;25.57;;;12.80;;
4726;SDS011;2377;51.734;8.950;2023-02-01T13:30:54;24.30;;;11.93;;
4726;SDS011;2377;51.734;8.950;2023-02-01T13:33:47;30.20;;;11.80;;
4726;SDS011;2377;51.734;8.950;2023-02-01T13:36:59;30.30;;;13.27;;
4726;SDS011;2377;51.734;8.950;2023-02-01T13:39:47;29.93;;;13.73;;
4726;SDS011;2377;51.734;8.950;2023-02-01T13:42:35;29.63;;;13.40;;
4726;SDS011;2377;51.734;8.950;2023-02-01T13:45:16;36.83;;;13.10;;
4726;SDS011;2377;51.734;8.950;2023-02-01T13:47:48;28.60;;;13.00;;
4726;SDS011;2377;51.734;8.950;2023-02-01T13:50:21;40.33;;;16.30;;
4726;SDS011;2377;51.734;8.950;2023-02-01T13:52:53;33.33;;;14.50;;
4726;SDS011;2377;51.734;8.950;2023-02-01T13:55:27;29.10;;;12.73;;
4726;SDS011;2377;51.734;8.950;2023-02-01T14:00:48;28.83;;;13.93;;
4726;SDS011;2377;51.734;8.950;2023-02-01T14:03:18;31.97;;;14.17;;
4726;SDS011;2377;51.734;8.950;2023-02-01T14:05:55;28.13;;;12.30;;
4726;SDS011;2377;51.734;8.950;2023-02-01T14:08:44;37.03;;;15.00;;
4726;SDS011;2377;51.734;8.950;2023-02-01T14:11:39;30.37;;;13.60;;
4726;SDS011;2377;51.734;8.950;2023-02-01T14:23:22;26.00;;;11.50;;
4726;SDS011;2377;51.734;8.950;2023-02-01T14:26:06;33.07;;;12.73;;
4726;SDS011;2377;51.734;8.950;2023-02-01T14:28:39;26.17;;;10.70;;
4726;SDS011;2377;51.734;8.950;2023-02-01T14:34:14;34.37;;;11.60;;
4726;SDS011;2377;51.734;8.950;2023-02-01T14:36:49;31.07;;;10.67;;
4726;SDS011;2377;51.734;8.950;2023-02-01T14:39:26;38.13;;;11.40;;
4726;SDS011;2377;51.734;8.950;2023-02-01T14:42:04;28.93;;;9.93;;
4726;SDS011;2377;51.734;8.950;2023-02-01T14:44:47;32.03;;;9.13;;
4726;SDS011;2377;51.734;8.950;2023-02-01T14:53:04;22.37;;;7.13;;
4726;SDS011;2377;51.734;8.950;2023-02-01T14:55:46;23.37;;;7.47;;
4726;SDS011;2377;51.734;8.950;2023-02-01T14:58:20;24.83;;;7.40;;
4726;SDS011;2377;51.734;8.950;2023-02-01T15:01:02;33.60;;;7.80;;
4726;SDS011;2377;51.734;8.950;2023-02-01T15:03:36;26.93;;;8.17;;
4726;SDS011;2377;51.734;8.950;2023-02-01T15:06:19;28.17;;;6.13;;
4726;SDS011;2377;51.734;8.950;2023-02-01T15:08:57;25.20;;;6.33;;
4726;SDS011;2377;51.734;8.950;2023-02-01T15:11:29;21.50;;;5.77;;
4726;SDS011;2377;51.734;8.950;2023-02-01T15:13:56;22.67;;;5.47;;
4726;SDS011;2377;51.734;8.950;2023-02-01T15:16:25;8.80;;;3.37;;
4726;SDS011;2377;51.734;8.950;2023-02-01T15:19:10;6.83;;;2.60;;
4726;SDS011;2377;51.734;8.950;2023-02-01T15:21:44;18.00;;;4.53;;
4726;SDS011;2377;51.734;8.950;2023-02-01T15:24:14;11.80;;;2.57;;
4726;SDS011;2377;51.734;8.950;2023-02-01T15:26:47;7.40;;;3.03;;
4726;SDS011;2377;51.734;8.950;2023-02-01T15:29:14;5.30;;;2.57;;
4726;SDS011;2377;51.734;8.950;2023-02-01T15:31:43;4.40;;;1.93;;
4726;SDS011;2377;51.734;8.950;2023-02-01T15:34:14;6.43;;;1.70;;
4726;SDS011;2377;51.734;8.950;2023-02-01T15:36:42;3.10;;;1.33;;
4726;SDS011;2377;51.734;8.950;2023-02-01T15:39:11;8.63;;;2.50;;
4726;SDS011;2377;51.734;8.950;2023-02-01T15:41:47;6.10;;;1.83;;
4726;SDS011;2377;51.734;8.950;2023-02-01T15:44:26;7.80;;;1.80;;
4726;SDS011;2377;51.734;8.950;2023-02-01T15:46:59;9.70;;;2.40;;
4726;SDS011;2377;51.734;8.950;2023-02-01T15:49:37;7.23;;;2.60;;
4726;SDS011;2377;51.734;8.950;2023-02-01T15:52:16;8.63;;;2.07;;
4726;SDS011;2377;51.734;8.950;2023-02-01T15:54:53;12.00;;;2.43;;
4726;SDS011;2377;51.734;8.950;2023-02-01T15:57:26;7.33;;;2.07;;
4726;SDS011;2377;51.734;8.950;2023-02-01T15:59:57;9.53;;;2.40;;
4726;SDS011;2377;51.734;8.950;2023-02-01T16:02:27;9.63;;;2.90;;
4726;SDS011;2377;51.734;8.950;2023-02-01T16:05:02;11.20;;;2.60;;
4726;SDS011;2377;51.734;8.950;2023-02-01T16:07:32;9.30;;;2.80;;
4726;SDS011;2377;51.734;8.950;2023-02-01T16:10:01;9.00;;;3.07;;